sensor_id;sensor_type;location;lat;lon;timestamp;pressure;altitude;pressure_sealevel;temperature;humidity
70968;BME280;58629;48.808;8.820;2023-02-13T00:01:31;99035.66;;;-0.87;96.91
70968;BME280;58629;48.808;8.820;2023-02-13T00:03:58;99037.94;;;-0.85;96.83
70968;BME280;58629;48.808;8.820;2023-02-13T00:06:23;99031.22;;;-0.86;96.43
70968;BME280;58629;48.808;8.820;2023-02-13T00:08:49;99030.53;;;-0.92;96.11
70968;BME280;58629;48.808;8.820;2023-02-13T00:11:14;99025.13;;;-0.95;96.54
70968;BME280;58629;48.808;8.820;2023-02-13T00:13:40;99020.97;;;-0.96;96.12
70968;BME280;58629;48.808;8.820;2023-02-13T00:16:05;99021.56;;;-0.99;96.46
70968;BME280;58629;48.808;8.820;2023-02-13T00:18:35;99020.59;;;-1.03;96.58
70968;BME280;58629;48.808;8.820;2023-02-13T00:21:10;99021.28;;;-0.98;97.38
70968;BME280;58629;48.808;8.820;2023-02-13T00:23:36;99021.75;;;-0.96;97.82
70968;BME280;58629;48.808;8.820;2023-02-13T00:26:11;99017.53;;;-0.92;98.91
70968;BME280;58629;48.808;8.820;2023-02-13T00:28:37;99024.84;;;-0.94;98.64
70968;BME280;58629;48.808;8.820;2023-02-13T00:31:04;99025.59;;;-0.93;97.97
70968;BME280;58629;48.808;8.820;2023-02-13T00:33:30;99020.69;;;-0.95;97.71
70968;BME280;58629;48.808;8.820;2023-02-13T00:36:11;99028.00;;;-0.97;97.03
70968;BME280;58629;48.808;8.820;2023-02-13T00:38:37;99020.00;;;-1.00;96.85
70968;BME280;58629;48.808;8.820;2023-02-13T00:41:04;99025.50;;;-1.02;96.89
70968;BME280;58629;48.808;8.820;2023-02-13T00:43:29;99022.41;;;-1.04;96.73
70968;BME280;58629;48.808;8.820;2023-02-13T00:45:55;99026.53;;;-1.03;97.28
70968;BME280;58629;48.808;8.820;2023-02-13T00:48:22;99020.31;;;-1.02;97.45
70968;BME280;58629;48.808;8.820;2023-02-13T00:50:47;99025.00;;;-1.04;97.74
70968;BME280;58629;48.808;8.820;2023-02-13T00:53:13;99020.09;;;-1.05;97.89
70968;BME280;58629;48.808;8.820;2023-02-13T00:55:38;99024.22;;;-1.04;98.33
70968;BME280;58629;48.808;8.820;2023-02-13T00:58:03;99026.53;;;-1.03;98.54
70968;BME280;58629;48.808;8.820;2023-02-13T01:00:29;99025.50;;;-1.02;98.71
70968;BME280;58629;48.808;8.820;2023-02-13T01:02:54;99026.75;;;-0.99;98.89
70968;BME280;58629;48.808;8.820;2023-02-13T01:05:19;99030.13;;;-0.99;98.90
70968;BME280;58629;48.808;8.820;2023-02-13T01:07:44;99027.31;;;-1.02;98.66
70968;BME280;58629;48.808;8.820;2023-02-13T01:10:10;99025.00;;;-1.04;98.67
70968;BME280;58629;48.808;8.820;2023-02-13T01:12:35;99023.25;;;-1.08;98.39
70968;BME280;58629;48.808;8.820;2023-02-13T01:15:01;99032.03;;;-1.04;98.50
70968;BME280;58629;48.808;8.820;2023-02-13T01:17:27;99020.84;;;-1.05;98.75
70968;BME280;58629;48.808;8.820;2023-02-13T01:19:52;99018.25;;;-1.05;98.37
70968;BME280;58629;48.808;8.820;2023-02-13T01:22:18;99018.75;;;-1.03;98.38
70968;BME280;58629;48.808;8.820;2023-02-13T01:24:43;99012.06;;;-1.09;97.36
70968;BME280;58629;48.808;8.820;2023-02-13T01:27:08;99009.75;;;-1.10;97.69
70968;BME280;58629;48.808;8.820;2023-02-13T01:29:33;99011.09;;;-1.13;96.98
70968;BME280;58629;48.808;8.820;2023-02-13T01:31:59;99005.41;;;-1.15;97.78
70968;BME280;58629;48.808;8.820;2023-02-13T01:34:26;99004.44;;;-1.19;97.70
70968;BME280;58629;48.808;8.820;2023-02-13T01:36:51;98999.47;;;-1.15;98.41
70968;BME280;58629;48.808;8.820;2023-02-13T01:39:17;99009.09;;;-1.16;98.27
70968;BME280;58629;48.808;8.820;2023-02-13T01:41:42;98997.34;;;-1.13;98.65
70968;BME280;58629;48.808;8.820;2023-02-13T01:47:11;99003.31;;;-1.13;98.45
70968;BME280;58629;48.808;8.820;2023-02-13T01:49:37;99003.31;;;-1.13;98.98
70968;BME280;58629;48.808;8.820;2023-02-13T01:52:03;99004.06;;;-1.12;99.02
70968;BME280;58629;48.808;8.820;2023-02-13T01:54:31;98997.41;;;-1.18;98.41
70968;BME280;58629;48.808;8.820;2023-02-13T01:57:01;98998.84;;;-1.26;98.10
70968;BME280;58629;48.808;8.820;2023-02-13T01:59:38;98999.97;;;-1.32;96.28
70968;BME280;58629;48.808;8.820;2023-02-13T02:02:05;99000.31;;;-1.38;95.97
70968;BME280;58629;48.808;8.820;2023-02-13T02:04:32;99000.69;;;-1.45;96.73
70968;BME280;58629;48.808;8.820;2023-02-13T02:07:10;99001.25;;;-1.48;97.46
70968;BME280;58629;48.808;8.820;2023-02-13T02:09:40;98998.66;;;-1.48;97.27
70968;BME280;58629;48.808;8.820;2023-02-13T02:12:19;99004.34;;;-1.46;97.65
70968;BME280;58629;48.808;8.820;2023-02-13T02:14:47;99003.28;;;-1.45;97.63
70968;BME280;58629;48.808;8.820;2023-02-13T02:17:14;99010.31;;;-1.45;98.40
70968;BME280;58629;48.808;8.820;2023-02-13T02:23:02;98997.03;;;-1.44;97.29
70968;BME280;58629;48.808;8.820;2023-02-13T02:34:30;99007.28;;;-1.52;97.36
70968;BME280;58629;48.808;8.820;2023-02-13T02:45:45;98995.69;;;-1.60;97.23
70968;BME280;58629;48.808;8.820;2023-02-13T02:48:25;98993.38;;;-1.61;96.98
70968;BME280;58629;48.808;8.820;2023-02-13T02:51:37;98989.97;;;-1.57;98.10
70968;BME280;58629;48.808;8.820;2023-02-13T02:54:16;98991.56;;;-1.61;97.88
70968;BME280;58629;48.808;8.820;2023-02-13T02:57:21;98998.59;;;-1.61;97.22
70968;BME280;58629;48.808;8.820;2023-02-13T02:59:49;98995.00;;;-1.65;96.62
70968;BME280;58629;48.808;8.820;2023-02-13T03:02:35;99000.78;;;-1.68;96.80
70968;BME280;58629;48.808;8.820;2023-02-13T03:05:27;98993.25;;;-1.70;96.95
70968;BME280;58629;48.808;8.820;2023-02-13T03:08:13;98994.81;;;-1.69;97.05
70968;BME280;58629;48.808;8.820;2023-02-13T03:10:39;98990.94;;;-1.71;97.06
70968;BME280;58629;48.808;8.820;2023-02-13T03:13:38;98990.44;;;-1.73;97.38
70968;BME280;58629;48.808;8.820;2023-02-13T03:16:05;98993.03;;;-1.73;97.62
70968;BME280;58629;48.808;8.820;2023-02-13T03:18:52;98996.97;;;-1.76;96.84
70968;BME280;58629;48.808;8.820;2023-02-13T03:30:40;98999.50;;;-1.71;98.50
70968;BME280;58629;48.808;8.820;2023-02-13T03:33:41;98996.13;;;-1.71;98.25
70968;BME280;58629;48.808;8.820;2023-02-13T03:39:14;99000.28;;;-1.70;98.32
70968;BME280;58629;48.808;8.820;2023-02-13T03:46:59;99005.72;;;-1.72;98.12
70968;BME280;58629;48.808;8.820;2023-02-13T03:49:32;99009.69;;;-1.74;98.62
70968;BME280;58629;48.808;8.820;2023-02-13T03:55:09;99011.72;;;-1.71;99.14
70968;BME280;58629;48.808;8.820;2023-02-13T03:57:58;99013.53;;;-1.72;98.52
70968;BME280;58629;48.808;8.820;2023-02-13T04:00:49;99017.09;;;-1.68;99.00
70968;BME280;58629;48.808;8.820;2023-02-13T04:03:29;99014.31;;;-1.71;98.27
70968;BME280;58629;48.808;8.820;2023-02-13T04:06:01;99022.94;;;-1.76;97.41
70968;BME280;58629;48.808;8.820;2023-02-13T04:08:28;99021.94;;;-1.80;97.08
70968;BME280;58629;48.808;8.820;2023-02-13T04:10:58;99023.50;;;-1.79;98.31
70968;BME280;58629;48.808;8.820;2023-02-13T04:13:35;99029.38;;;-1.73;98.41
70968;BME280;58629;48.808;8.820;2023-02-13T04:16:09;99037.97;;;-1.73;98.23
70968;BME280;58629;48.808;8.820;2023-02-13T04:18:36;99034.03;;;-1.70;98.99
70968;BME280;58629;48.808;8.820;2023-02-13T04:21:04;99038.16;;;-1.69;98.67
70968;BME280;58629;48.808;8.820;2023-02-13T04:23:30;99031.16;;;-1.69;98.84
70968;BME280;58629;48.808;8.820;2023-02-13T04:25:56;99031.94;;;-1.68;98.46
70968;BME280;58629;48.808;8.820;2023-02-13T04:28:22;99028.63;;;-1.74;98.49
70968;BME280;58629;48.808;8.820;2023-02-13T04:30:47;99033.81;;;-1.74;98.86
70968;BME280;58629;48.808;8.820;2023-02-13T04:33:14;99041.88;;;-1.76;98.91
70968;BME280;58629;48.808;8.820;2023-02-13T04:35:39;99035.66;;;-1.74;98.25
70968;BME280;58629;48.808;8.820;2023-02-13T04:38:04;99035.91;;;-1.76;98.57
70968;BME280;58629;48.808;8.820;2023-02-13T04:40:30;99027.63;;;-1.78;98.35
70968;BME280;58629;48.808;8.820;2023-02-13T04:42:55;99029.22;;;-1.82;97.53
70968;BME280;58629;48.808;8.820;2023-02-13T04:45:20;99030.59;;;-1.85;97.83
70968;BME280;58629;48.808;8.820;2023-02-13T04:47:53;99025.38;;;-1.85;98.24
70968;BME280;58629;48.808;8.820;2023-02-13T04:50:19;99031.34;;;-1.84;98.61
70968;BME280;58629;48.808;8.820;2023-02-13T04:52:44;99028.47;;;-1.83;98.83
70968;BME280;58629;48.808;8.820;2023-02-13T04:55:10;99029.53;;;-1.84;97.86
70968;BME280;58629;48.808;8.820;2023-02-13T04:57:35;99027.22;;;-1.85;98.00
70968;BME280;58629;48.808;8.820;2023-02-13T05:00:01;99029.31;;;-1.87;97.12
70968;BME280;58629;48.808;8.820;2023-02-13T05:02:26;99031.63;;;-1.86;97.52
70968;BME280;58629;48.808;8.820;2023-02-13T05:04:52;99030.13;;;-1.92;96.98
70968;BME280;58629;48.808;8.820;2023-02-13T05:07:17;99029.09;;;-1.91;96.96
70968;BME280;58629;48.808;8.820;2023-02-13T05:09:42;99033.31;;;-1.95;97.33
70968;BME280;58629;48.808;8.820;2023-02-13T05:12:08;99035.13;;;-1.95;97.55
70968;BME280;58629;48.808;8.820;2023-02-13T05:14:33;99033.31;;;-1.95;97.78
70968;BME280;58629;48.808;8.820;2023-02-13T05:16:58;99029.94;;;-1.95;98.21
70968;BME280;58629;48.808;8.820;2023-02-13T05:19:24;99022.13;;;-1.95;98.19
70968;BME280;58629;48.808;8.820;2023-02-13T05:21:49;99026.00;;;-1.93;99.07
70968;BME280;58629;48.808;8.820;2023-02-13T05:24:33;99029.94;;;-1.95;98.92
70968;BME280;58629;48.808;8.820;2023-02-13T05:26:58;99026.56;;;-1.96;98.53
70968;BME280;58629;48.808;8.820;2023-02-13T05:29:23;99031.00;;;-1.96;97.83
70968;BME280;58629;48.808;8.820;2023-02-13T05:31:59;99026.91;;;-2.02;97.04
70968;BME280;58629;48.808;8.820;2023-02-13T05:34:26;99040.63;;;-2.02;97.82
70968;BME280;58629;48.808;8.820;2023-02-13T05:36:51;99034.47;;;-2.06;97.68
70968;BME280;58629;48.808;8.820;2023-02-13T05:39:17;99039.94;;;-2.07;97.66
70968;BME280;58629;48.808;8.820;2023-02-13T05:41:43;99029.56;;;-2.07;97.81
70968;BME280;58629;48.808;8.820;2023-02-13T05:44:09;99035.03;;;-2.09;97.11
70968;BME280;58629;48.808;8.820;2023-02-13T05:46:36;99033.47;;;-2.10;96.52
70968;BME280;58629;48.808;8.820;2023-02-13T05:49:02;99032.97;;;-2.12;96.31
70968;BME280;58629;48.808;8.820;2023-02-13T05:51:27;99032.47;;;-2.14;96.34
70968;BME280;58629;48.808;8.820;2023-02-13T05:53:53;99031.22;;;-2.16;96.54
70968;BME280;58629;48.808;8.820;2023-02-13T05:56:18;99039.53;;;-2.19;96.32
70968;BME280;58629;48.808;8.820;2023-02-13T05:58:43;99034.34;;;-2.19;96.25
70968;BME280;58629;48.808;8.820;2023-02-13T06:01:09;99034.63;;;-2.21;96.87
70968;BME280;58629;48.808;8.820;2023-02-13T06:03:34;99029.66;;;-2.17;97.37
70968;BME280;58629;48.808;8.820;2023-02-13T06:06:00;99031.44;;;-2.13;97.30
70968;BME280;58629;48.808;8.820;2023-02-13T06:08:25;99027.78;;;-2.12;97.69
70968;BME280;58629;48.808;8.820;2023-02-13T06:10:51;99027.56;;;-2.15;97.29
70968;BME280;58629;48.808;8.820;2023-02-13T06:13:17;99028.34;;;-2.15;96.73
70968;BME280;58629;48.808;8.820;2023-02-13T06:15:42;99027.06;;;-2.17;97.21
70968;BME280;58629;48.808;8.820;2023-02-13T06:18:08;99031.97;;;-2.16;97.03
70968;BME280;58629;48.808;8.820;2023-02-13T06:20:34;99024.19;;;-2.16;97.02
70968;BME280;58629;48.808;8.820;2023-02-13T06:23:00;99024.97;;;-2.15;97.09
70968;BME280;58629;48.808;8.820;2023-02-13T06:25:26;99032.22;;;-2.12;97.61
70968;BME280;58629;48.808;8.820;2023-02-13T06:27:52;99021.84;;;-2.12;97.10
70968;BME280;58629;48.808;8.820;2023-02-13T06:30:17;99023.66;;;-2.13;97.45
70968;BME280;58629;48.808;8.820;2023-02-13T06:32:45;99021.06;;;-2.13;97.86
70968;BME280;58629;48.808;8.820;2023-02-13T06:35:10;99024.16;;;-2.11;97.32
70968;BME280;58629;48.808;8.820;2023-02-13T06:37:35;99018.19;;;-2.11;97.75
70968;BME280;58629;48.808;8.820;2023-02-13T06:40:01;99018.97;;;-2.11;97.59
70968;BME280;58629;48.808;8.820;2023-02-13T06:42:26;99022.34;;;-2.10;98.12
70968;BME280;58629;48.808;8.820;2023-02-13T06:44:51;99021.28;;;-2.09;97.71
70968;BME280;58629;48.808;8.820;2023-02-13T06:47:17;99023.44;;;-2.16;96.77
70968;BME280;58629;48.808;8.820;2023-02-13T06:49:42;99022.59;;;-2.12;98.29
70968;BME280;58629;48.808;8.820;2023-02-13T06:52:07;99014.53;;;-2.10;98.12
70968;BME280;58629;48.808;8.820;2023-02-13T06:54:33;99020.97;;;-2.08;97.91
70968;BME280;58629;48.808;8.820;2023-02-13T06:56:58;99027.44;;;-2.05;97.86
70968;BME280;58629;48.808;8.820;2023-02-13T06:59:24;99031.59;;;-2.04;97.59
70968;BME280;58629;48.808;8.820;2023-02-13T07:01:49;99036.50;;;-2.03;97.73
70968;BME280;58629;48.808;8.820;2023-02-13T07:04:14;99037.56;;;-2.04;97.42
70968;BME280;58629;48.808;8.820;2023-02-13T07:06:40;99035.72;;;-2.03;98.13
70968;BME280;58629;48.808;8.820;2023-02-13T07:09:05;99039.41;;;-2.04;97.52
70968;BME280;58629;48.808;8.820;2023-02-13T07:11:30;99039.13;;;-2.03;98.00
70968;BME280;58629;48.808;8.820;2023-02-13T07:13:56;99038.53;;;-2.00;97.57
70968;BME280;58629;48.808;8.820;2023-02-13T07:16:21;99043.97;;;-1.96;97.82
70968;BME280;58629;48.808;8.820;2023-02-13T07:18:46;99048.59;;;-1.93;97.86
70968;BME280;58629;48.808;8.820;2023-02-13T07:21:12;99042.34;;;-1.92;98.13
70968;BME280;58629;48.808;8.820;2023-02-13T07:23:37;99051.41;;;-1.90;97.84
70968;BME280;58629;48.808;8.820;2023-02-13T07:26:03;99056.06;;;-1.87;98.09
70968;BME280;58629;48.808;8.820;2023-02-13T07:28:29;99048.47;;;-1.83;97.98
70968;BME280;58629;48.808;8.820;2023-02-13T07:30:55;99051.78;;;-1.78;98.69
70968;BME280;58629;48.808;8.820;2023-02-13T07:33:21;99057.66;;;-1.72;99.04
70968;BME280;58629;48.808;8.820;2023-02-13T07:35:48;99050.63;;;-1.66;99.01
70968;BME280;58629;48.808;8.820;2023-02-13T07:38:14;99055.72;;;-1.61;98.79
70968;BME280;58629;48.808;8.820;2023-02-13T07:40:39;99054.63;;;-1.55;98.85
70968;BME280;58629;48.808;8.820;2023-02-13T07:43:05;99055.81;;;-1.48;98.56
70968;BME280;58629;48.808;8.820;2023-02-13T07:45:30;99057.28;;;-1.42;98.48
70968;BME280;58629;48.808;8.820;2023-02-13T07:47:56;99053.56;;;-1.36;98.57
70968;BME280;58629;48.808;8.820;2023-02-13T07:50:21;99044.63;;;-1.30;99.19
70968;BME280;58629;48.808;8.820;2023-02-13T07:52:58;99051.03;;;-1.22;99.18
70968;BME280;58629;48.808;8.820;2023-02-13T07:55:24;99043.91;;;-1.17;99.96
70968;BME280;58629;48.808;8.820;2023-02-13T07:57:50;99043.28;;;-1.09;99.86
70968;BME280;58629;48.808;8.820;2023-02-13T08:00:16;99040.59;;;-1.04;100.00
70968;BME280;58629;48.808;8.820;2023-02-13T08:02:42;99044.09;;;-0.95;100.00
70968;BME280;58629;48.808;8.820;2023-02-13T08:05:07;99040.66;;;-0.90;100.00
70968;BME280;58629;48.808;8.820;2023-02-13T08:07:33;99044.91;;;-0.80;100.00
70968;BME280;58629;48.808;8.820;2023-02-13T08:09:59;99034.69;;;-0.77;100.00
70968;BME280;58629;48.808;8.820;2023-02-13T08:12:43;99037.44;;;-0.68;100.00
70968;BME280;58629;48.808;8.820;2023-02-13T08:15:11;99038.28;;;-0.59;100.00
70968;BME280;58629;48.808;8.820;2023-02-13T08:17:36;99031.94;;;-0.53;100.00
70968;BME280;58629;48.808;8.820;2023-02-13T08:20:02;99036.22;;;-0.44;100.00
70968;BME280;58629;48.808;8.820;2023-02-13T08:22:27;99030.84;;;-0.34;100.00
70968;BME280;58629;48.808;8.820;2023-02-13T08:24:52;99033.22;;;-0.24;100.00
70968;BME280;58629;48.808;8.820;2023-02-13T08:27:18;99036.91;;;-0.11;100.00
70968;BME280;58629;48.808;8.820;2023-02-13T08:29:43;99029.56;;;0.05;100.00
70968;BME280;58629;48.808;8.820;2023-02-13T08:32:08;99033.69;;;0.19;100.00
70968;BME280;58629;48.808;8.820;2023-02-13T08:34:34;99033.66;;;0.33;100.00
70968;BME280;58629;48.808;8.820;2023-02-13T08:37:00;99037.59;;;0.44;100.00
70968;BME280;58629;48.808;8.820;2023-02-13T08:39:26;99036.72;;;0.48;100.00
70968;BME280;58629;48.808;8.820;2023-02-13T08:41:51;99036.16;;;0.51;100.00
70968;BME280;58629;48.808;8.820;2023-02-13T08:44:16;99023.28;;;0.55;100.00
70968;BME280;58629;48.808;8.820;2023-02-13T08:46:42;99021.50;;;0.64;100.00
70968;BME280;58629;48.808;8.820;2023-02-13T08:49:07;99021.59;;;0.72;100.00
70968;BME280;58629;48.808;8.820;2023-02-13T08:51:32;99019.22;;;0.84;100.00
70968;BME280;58629;48.808;8.820;2023-02-13T08:53:58;99023.06;;;1.09;100.00
70968;BME280;58629;48.808;8.820;2023-02-13T08:56:23;99017.41;;;1.38;100.00
70968;BME280;58629;48.808;8.820;2023-02-13T08:58:48;99010.56;;;1.59;100.00
70968;BME280;58629;48.808;8.820;2023-02-13T09:01:14;99019.44;;;1.89;100.00
70968;BME280;58629;48.808;8.820;2023-02-13T09:03:40;99016.41;;;2.12;100.00
70968;BME280;58629;48.808;8.820;2023-02-13T09:06:05;99011.97;;;2.30;100.00
70968;BME280;58629;48.808;8.820;2023-02-13T09:08:31;99012.75;;;2.90;100.00
70968;BME280;58629;48.808;8.820;2023-02-13T09:10:59;99021.19;;;3.68;100.00
70968;BME280;58629;48.808;8.820;2023-02-13T09:13:26;99012.56;;;4.25;100.00
70968;BME280;58629;48.808;8.820;2023-02-13T09:15:52;99001.81;;;4.92;97.26
70968;BME280;58629;48.808;8.820;2023-02-13T09:18:17;99000.22;;;5.45;92.55
70968;BME280;58629;48.808;8.820;2023-02-13T09:20:42;99004.19;;;5.87;88.41
70968;BME280;58629;48.808;8.820;2023-02-13T09:23:07;99004.25;;;6.27;87.58
70968;BME280;58629;48.808;8.820;2023-02-13T09:25:33;99003.53;;;6.54;84.92
70968;BME280;58629;48.808;8.820;2023-02-13T09:27:58;98996.84;;;6.84;82.82
70968;BME280;58629;48.808;8.820;2023-02-13T09:30:23;99007.53;;;7.03;80.39
70968;BME280;58629;48.808;8.820;2023-02-13T09:32:52;99001.50;;;7.18;79.72
70968;BME280;58629;48.808;8.820;2023-02-13T09:35:19;99005.78;;;7.23;78.49
70968;BME280;58629;48.808;8.820;2023-02-13T09:37:45;98998.38;;;7.28;75.95
70968;BME280;58629;48.808;8.820;2023-02-13T09:40:17;98999.81;;;7.26;75.74
70968;BME280;58629;48.808;8.820;2023-02-13T09:42:44;99004.31;;;7.25;77.53
70968;BME280;58629;48.808;8.820;2023-02-13T09:45:11;98997.81;;;7.35;75.62
70968;BME280;58629;48.808;8.820;2023-02-13T09:47:40;99004.59;;;7.36;74.48
70968;BME280;58629;48.808;8.820;2023-02-13T09:50:13;99002.47;;;7.41;76.13
70968;BME280;58629;48.808;8.820;2023-02-13T09:52:43;99011.06;;;7.54;75.52
70968;BME280;58629;48.808;8.820;2023-02-13T09:55:18;99008.25;;;7.78;75.16
70968;BME280;58629;48.808;8.820;2023-02-13T09:57:52;99017.41;;;8.00;74.21
70968;BME280;58629;48.808;8.820;2023-02-13T10:00:41;99014.41;;;8.17;72.44
70968;BME280;58629;48.808;8.820;2023-02-13T10:03:25;99008.78;;;8.34;71.29
70968;BME280;58629;48.808;8.820;2023-02-13T10:14:23;99017.25;;;8.62;70.39
70968;BME280;58629;48.808;8.820;2023-02-13T10:17:10;99014.84;;;8.72;69.95
70968;BME280;58629;48.808;8.820;2023-02-13T10:19:45;99018.09;;;8.66;69.69
70968;BME280;58629;48.808;8.820;2023-02-13T10:22:18;99014.38;;;8.67;69.66
70968;BME280;58629;48.808;8.820;2023-02-13T10:27:20;99012.50;;;8.67;70.32
70968;BME280;58629;48.808;8.820;2023-02-13T10:29:55;99014.00;;;8.88;69.45
70968;BME280;58629;48.808;8.820;2023-02-13T10:34:58;99009.41;;;9.04;67.70
70968;BME280;58629;48.808;8.820;2023-02-13T10:37:27;99010.38;;;8.96;67.82
70968;BME280;58629;48.808;8.820;2023-02-13T10:39:52;99013.09;;;8.99;68.15
70968;BME280;58629;48.808;8.820;2023-02-13T10:45:20;99014.41;;;9.09;67.12
70968;BME280;58629;48.808;8.820;2023-02-13T10:56:37;99007.09;;;9.02;67.50
70968;BME280;58629;48.808;8.820;2023-02-13T11:01:55;98999.84;;;9.41;66.35
70968;BME280;58629;48.808;8.820;2023-02-13T11:04:21;98998.44;;;9.47;65.41
70968;BME280;58629;48.808;8.820;2023-02-13T11:06:55;98991.81;;;9.34;66.30
70968;BME280;58629;48.808;8.820;2023-02-13T11:09:22;98999.50;;;9.20;66.69
70968;BME280;58629;48.808;8.820;2023-02-13T11:11:48;98997.38;;;9.06;66.58
70968;BME280;58629;48.808;8.820;2023-02-13T11:14:16;98997.94;;;8.96;67.89
70968;BME280;58629;48.808;8.820;2023-02-13T11:19:16;98993.56;;;8.85;68.01
70968;BME280;58629;48.808;8.820;2023-02-13T11:21:42;98982.25;;;8.65;67.39
70968;BME280;58629;48.808;8.820;2023-02-13T11:24:17;98983.50;;;8.52;68.70
70968;BME280;58629;48.808;8.820;2023-02-13T11:26:43;98987.38;;;8.39;69.99
70968;BME280;58629;48.808;8.820;2023-02-13T11:29:19;98981.25;;;8.35;70.19
70968;BME280;58629;48.808;8.820;2023-02-13T11:32:00;98975.78;;;8.43;69.31
70968;BME280;58629;48.808;8.820;2023-02-13T11:34:30;98985.22;;;8.44;68.28
70968;BME280;58629;48.808;8.820;2023-02-13T11:39:36;98976.19;;;8.11;69.66
70968;BME280;58629;48.808;8.820;2023-02-13T11:42:01;98985.13;;;8.06;71.23
70968;BME280;58629;48.808;8.820;2023-02-13T11:44:31;98978.34;;;8.05;69.00
70968;BME280;58629;48.808;8.820;2023-02-13T11:47:00;98976.81;;;8.04;68.24
70968;BME280;58629;48.808;8.820;2023-02-13T11:49:29;98987.28;;;8.01;69.69
70968;BME280;58629;48.808;8.820;2023-02-13T11:51:59;98980.84;;;7.98;69.99
70968;BME280;58629;48.808;8.820;2023-02-13T11:57:20;98979.75;;;8.18;68.41
70968;BME280;58629;48.808;8.820;2023-02-13T11:59:48;98983.47;;;8.33;68.13
70968;BME280;58629;48.808;8.820;2023-02-13T12:02:18;98979.41;;;8.35;67.42
70968;BME280;58629;48.808;8.820;2023-02-13T12:04:44;98978.22;;;8.52;65.48
70968;BME280;58629;48.808;8.820;2023-02-13T12:07:26;98974.59;;;8.60;66.88
70968;BME280;58629;48.808;8.820;2023-02-13T12:09:58;98975.16;;;8.69;66.19
70968;BME280;58629;48.808;8.820;2023-02-13T12:12:39;98978.69;;;8.77;66.05
70968;BME280;58629;48.808;8.820;2023-02-13T12:15:21;98978.41;;;8.82;65.58
70968;BME280;58629;48.808;8.820;2023-02-13T12:18:23;98971.63;;;9.03;64.77
70968;BME280;58629;48.808;8.820;2023-02-13T12:31:39;98967.97;;;9.30;64.59
70968;BME280;58629;48.808;8.820;2023-02-13T12:39:33;98963.19;;;9.17;63.22
70968;BME280;58629;48.808;8.820;2023-02-13T12:45:06;98959.19;;;9.04;63.29
70968;BME280;58629;48.808;8.820;2023-02-13T12:47:44;98955.38;;;9.01;63.08
70968;BME280;58629;48.808;8.820;2023-02-13T12:56:06;98959.84;;;8.78;65.00
70968;BME280;58629;48.808;8.820;2023-02-13T12:58:51;98959.00;;;8.93;66.58
70968;BME280;58629;48.808;8.820;2023-02-13T13:07:26;98943.91;;;9.88;70.82
70968;BME280;58629;48.808;8.820;2023-02-13T13:13:27;98940.06;;;10.37;65.98
70968;BME280;58629;48.808;8.820;2023-02-13T13:16:18;98939.59;;;10.65;64.53
70968;BME280;58629;48.808;8.820;2023-02-13T13:21:56;98937.28;;;10.97;63.07
70968;BME280;58629;48.808;8.820;2023-02-13T13:24:49;98937.81;;;11.13;62.20
70968;BME280;58629;48.808;8.820;2023-02-13T13:27:24;98932.59;;;11.27;61.29
70968;BME280;58629;48.808;8.820;2023-02-13T13:29:57;98922.06;;;11.34;61.43
70968;BME280;58629;48.808;8.820;2023-02-13T13:32:25;98923.19;;;11.33;59.71
70968;BME280;58629;48.808;8.820;2023-02-13T13:34:50;98927.75;;;11.32;59.55
70968;BME280;58629;48.808;8.820;2023-02-13T13:42:46;98924.22;;;11.21;62.04
70968;BME280;58629;48.808;8.820;2023-02-13T13:47:52;98919.31;;;11.20;59.97
70968;BME280;58629;48.808;8.820;2023-02-13T13:50:25;98922.78;;;11.27;61.84
70968;BME280;58629;48.808;8.820;2023-02-13T13:53:17;98915.97;;;11.26;61.66
70968;BME280;58629;48.808;8.820;2023-02-13T13:58:21;98919.75;;;11.29;61.65
70968;BME280;58629;48.808;8.820;2023-02-13T14:03:42;98924.16;;;11.58;62.58
70968;BME280;58629;48.808;8.820;2023-02-13T14:06:13;98926.88;;;11.69;62.03
70968;BME280;58629;48.808;8.820;2023-02-13T14:11:05;98918.47;;;11.09;60.38
70968;BME280;58629;48.808;8.820;2023-02-13T14:13:37;98920.75;;;11.10;61.76
70968;BME280;58629;48.808;8.820;2023-02-13T14:16:04;98921.63;;;10.85;61.13
70968;BME280;58629;48.808;8.820;2023-02-13T14:18:30;98923.88;;;10.79;59.02
70968;BME280;58629;48.808;8.820;2023-02-13T14:21:01;98921.84;;;10.36;59.06
70968;BME280;58629;48.808;8.820;2023-02-13T14:31:27;98921.16;;;10.39;63.39
70968;BME280;58629;48.808;8.820;2023-02-13T14:36:36;98920.72;;;10.70;63.75
70968;BME280;58629;48.808;8.820;2023-02-13T14:39:21;98924.25;;;10.81;63.87
70968;BME280;58629;48.808;8.820;2023-02-13T14:44:34;98922.50;;;10.96;59.96
70968;BME280;58629;48.808;8.820;2023-02-13T14:47:04;98908.75;;;10.83;62.07
70968;BME280;58629;48.808;8.820;2023-02-13T14:49:38;98914.81;;;10.84;62.54
70968;BME280;58629;48.808;8.820;2023-02-13T14:52:17;98904.56;;;10.82;62.69
70968;BME280;58629;48.808;8.820;2023-02-13T14:54:48;98906.09;;;10.83;62.29
70968;BME280;58629;48.808;8.820;2023-02-13T14:57:20;98905.34;;;10.83;63.33
70968;BME280;58629;48.808;8.820;2023-02-13T14:59:49;98906.81;;;10.80;62.73
70968;BME280;58629;48.808;8.820;2023-02-13T15:02:22;98903.81;;;10.82;61.98
70968;BME280;58629;48.808;8.820;2023-02-13T15:05:00;98900.75;;;10.80;62.26
70968;BME280;58629;48.808;8.820;2023-02-13T15:07:33;98896.50;;;10.72;61.77
70968;BME280;58629;48.808;8.820;2023-02-13T15:10:13;98888.88;;;10.63;61.29
70968;BME280;58629;48.808;8.820;2023-02-13T15:13:00;98898.31;;;10.61;63.25
70968;BME280;58629;48.808;8.820;2023-02-13T15:15:31;98889.19;;;10.58;63.85
70968;BME280;58629;48.808;8.820;2023-02-13T15:18:10;98889.94;;;10.59;62.42
70968;BME280;58629;48.808;8.820;2023-02-13T15:20:38;98888.75;;;10.53;62.69
70968;BME280;58629;48.808;8.820;2023-02-13T15:23:05;98886.44;;;10.48;62.83
70968;BME280;58629;48.808;8.820;2023-02-13T15:25:32;98889.81;;;10.44;62.57
70968;BME280;58629;48.808;8.820;2023-02-13T15:27:58;98891.63;;;10.37;62.37
70968;BME280;58629;48.808;8.820;2023-02-13T15:30:30;98887.78;;;10.34;62.77
70968;BME280;58629;48.808;8.820;2023-02-13T15:33:00;98879.88;;;10.38;65.04
70968;BME280;58629;48.808;8.820;2023-02-13T15:35:31;98882.13;;;10.36;64.33
70968;BME280;58629;48.808;8.820;2023-02-13T15:37:58;98882.88;;;10.33;64.73
70968;BME280;58629;48.808;8.820;2023-02-13T15:40:29;98880.19;;;10.29;64.45
70968;BME280;58629;48.808;8.820;2023-02-13T15:42:56;98882.03;;;10.25;64.99